createdAt,value
2019-05-19T00:01:06.254Z,32.23
2019-05-19T00:06:10.222Z,34.88
2019-05-19T00:11:15.415Z,32.78
2019-05-19T00:16:19.048Z,31.80
2019-05-19T00:21:22.328Z,29.57
2019-05-19T00:26:25.612Z,33.85
2019-05-19T00:31:29.279Z,35.60
2019-05-19T00:36:32.718Z,31.10
2019-05-19T00:41:38.338Z,28.62
2019-05-19T00:46:41.750Z,29.77
2019-05-19T00:51:45.315Z,27.70
2019-05-19T00:56:51.128Z,27.90
2019-05-19T01:01:54.761Z,25.63
2019-05-19T01:06:58.079Z,28.23
2019-05-19T01:12:02.214Z,29.65
2019-05-19T01:17:07.412Z,33.13
2019-05-19T01:22:11.172Z,38.98
2019-05-19T01:27:14.610Z,29.25
2019-05-19T01:32:18.038Z,30.10
2019-05-19T01:37:21.435Z,29.48
2019-05-19T01:42:24.856Z,29.18
2019-05-19T01:47:30.508Z,33.58
2019-05-19T01:52:33.972Z,26.48
2019-05-19T01:57:37.448Z,30.00
2019-05-19T02:02:41.007Z,30.55
2019-05-19T02:07:44.391Z,30.70
2019-05-19T02:12:48.007Z,26.82
2019-05-19T02:17:51.559Z,26.42
2019-05-19T02:22:55.039Z,23.67
2019-05-19T02:27:58.582Z,23.60
2019-05-19T02:33:01.982Z,24.35
2019-05-19T02:38:05.375Z,19.80
2019-05-19T02:43:11.773Z,20.05
2019-05-19T02:48:18.004Z,22.67
2019-05-19T02:53:22.921Z,23.33
2019-05-19T02:58:27.093Z,16.10
2019-05-19T03:03:31.063Z,20.20
2019-05-19T03:08:34.737Z,16.57
2019-05-19T03:13:38.377Z,22.07
2019-05-19T03:18:42.301Z,19.00
2019-05-19T03:23:45.942Z,19.25
2019-05-19T03:28:49.450Z,17.77
2019-05-19T03:33:53.338Z,19.42
2019-05-19T03:38:57.255Z,20.68
2019-05-19T03:44:01.265Z,16.65
2019-05-19T03:49:04.829Z,16.87
2019-05-19T03:54:08.805Z,13.90
2019-05-19T03:59:13.141Z,15.18
2019-05-19T04:04:16.950Z,13.75
2019-05-19T04:09:20.261Z,13.75
2019-05-19T04:14:23.843Z,12.28
2019-05-19T04:19:27.539Z,12.53
2019-05-19T04:24:31.953Z,13.32
2019-05-19T04:29:39.218Z,12.47
2019-05-19T04:34:53.919Z,11.35
2019-05-19T04:39:57.228Z,12.65
2019-05-19T04:45:01.080Z,12.55
2019-05-19T04:50:05.616Z,13.72
2019-05-19T04:55:09.151Z,9.93
2019-05-19T05:00:14.123Z,11.22
2019-05-19T05:05:18.349Z,14.27
2019-05-19T05:10:22.665Z,10.20
2019-05-19T05:15:26.113Z,9.50
2019-05-19T05:20:29.398Z,10.53
2019-05-19T05:25:32.848Z,10.25
2019-05-19T05:30:36.108Z,10.25
2019-05-19T05:35:39.476Z,9.80
2019-05-19T05:40:42.900Z,7.55
2019-05-19T05:45:46.526Z,7.92
2019-05-19T05:50:50.001Z,8.23
2019-05-19T05:55:53.297Z,7.35
2019-05-19T06:00:57.542Z,8.73
2019-05-19T06:06:01.233Z,7.17
2019-05-19T06:11:04.842Z,8.40
2019-05-19T06:16:08.280Z,6.45
2019-05-19T06:21:11.896Z,6.40
2019-05-19T06:26:15.407Z,5.17
2019-05-19T06:31:18.828Z,5.10
2019-05-19T06:36:22.891Z,8.65
2019-05-19T06:41:26.452Z,5.97
2019-05-19T06:46:30.546Z,7.03
2019-05-19T06:51:34.403Z,6.33
2019-05-19T06:56:38.350Z,6.10
2019-05-19T07:01:41.930Z,8.70
2019-05-19T07:06:45.609Z,6.80
2019-05-19T07:11:49.108Z,5.67
2019-05-19T07:16:52.542Z,6.80
2019-05-19T07:21:56.538Z,7.45
2019-05-19T07:27:00.300Z,8.58
2019-05-19T07:32:03.753Z,5.97
2019-05-19T07:37:08.205Z,7.53
2019-05-19T07:42:11.616Z,9.28
2019-05-19T07:47:18.107Z,13.43
2019-05-19T07:52:21.659Z,6.22
2019-05-19T07:57:26.121Z,9.03
2019-05-19T08:02:29.672Z,9.33
2019-05-19T08:07:35.247Z,9.03
2019-05-19T08:12:39.141Z,7.53
2019-05-19T08:17:42.667Z,5.37
2019-05-19T08:22:46.586Z,11.97
2019-05-19T08:27:52.559Z,8.50
2019-05-19T08:32:56.028Z,3.60
2019-05-19T08:37:59.786Z,4.20
2019-05-19T08:43:04.994Z,6.03
2019-05-19T08:48:08.298Z,4.08
2019-05-19T08:53:11.642Z,5.45
2019-05-19T08:58:15.737Z,4.17
2019-05-19T09:03:24.781Z,6.45
2019-05-19T09:08:29.078Z,5.08
2019-05-19T09:13:32.653Z,8.95
2019-05-19T09:18:36.334Z,5.58
2019-05-19T09:23:39.711Z,9.85
2019-05-19T09:28:43.076Z,4.97
2019-05-19T09:33:46.375Z,5.15
2019-05-19T09:38:49.797Z,5.22
2019-05-19T09:43:53.475Z,6.65
2019-05-19T09:49:15.525Z,9.18
2019-05-19T09:54:19.517Z,8.85
2019-05-19T09:59:23.583Z,8.20
2019-05-19T10:04:27.421Z,11.33
2019-05-19T10:10:23.804Z,11.75
2019-05-19T10:15:27.263Z,10.80
2019-05-19T10:20:30.889Z,8.98
2019-05-19T10:25:36.387Z,9.10
2019-05-19T10:30:41.120Z,14.67
2019-05-19T10:35:45.069Z,8.20
2019-05-19T10:40:48.382Z,9.00
2019-05-19T10:46:00.654Z,10.10
2019-05-19T10:51:03.951Z,7.97
2019-05-19T10:56:07.994Z,11.33
2019-05-19T11:01:11.721Z,6.80
2019-05-19T11:06:15.574Z,8.03
2019-05-19T11:11:18.913Z,7.85
2019-05-19T11:16:22.314Z,7.22
2019-05-19T11:21:25.986Z,7.95
2019-05-19T11:26:29.350Z,7.53
2019-05-19T11:31:33.082Z,6.58
2019-05-19T11:36:37.007Z,5.30
2019-05-19T11:41:40.657Z,10.35
2019-05-19T11:46:44.104Z,15.43
2019-05-19T11:51:48.836Z,7.60
2019-05-19T11:57:05.343Z,8.80
2019-05-19T12:02:09.017Z,10.63
2019-05-19T12:07:12.938Z,8.63
2019-05-19T12:12:18.394Z,6.60
2019-05-19T12:17:22.771Z,7.65
2019-05-19T12:22:26.096Z,7.03
2019-05-19T12:27:29.456Z,5.42
2019-05-19T12:32:33.048Z,6.25
2019-05-19T12:37:39.134Z,6.03
2019-05-19T12:42:42.755Z,6.53
2019-05-19T12:47:46.894Z,5.50
2019-05-19T12:52:50.564Z,8.48
2019-05-19T12:57:54.150Z,6.28
2019-05-19T13:02:57.520Z,6.60
2019-05-19T13:08:01.091Z,7.22
2019-05-19T13:13:04.963Z,7.03
2019-05-19T13:18:08.804Z,5.37
2019-05-19T13:23:12.129Z,6.87
2019-05-19T13:28:15.477Z,7.33
2019-05-19T13:33:19.125Z,6.20
2019-05-19T13:38:23.141Z,8.55
2019-05-19T13:43:27.833Z,14.87
2019-05-19T13:48:31.919Z,6.45
2019-05-19T13:53:35.663Z,5.73
2019-05-19T13:58:38.981Z,4.80
2019-05-19T14:03:42.322Z,5.30
2019-05-19T14:08:47.487Z,5.65
2019-05-19T14:13:51.310Z,5.03
2019-05-19T14:18:54.622Z,5.95
2019-05-19T14:23:59.059Z,13.22
2019-05-19T14:29:02.573Z,12.63
2019-05-19T14:34:06.485Z,6.90
2019-05-19T14:39:10.205Z,8.18
2019-05-19T14:44:14.114Z,3.70
2019-05-19T14:49:17.416Z,3.00
2019-05-19T14:54:20.711Z,2.98
2019-05-19T14:59:26.710Z,7.10
2019-05-19T15:04:30.023Z,6.62
2019-05-19T15:09:33.486Z,7.85
2019-05-19T15:14:37.345Z,10.10
2019-05-19T15:19:41.041Z,7.55
2019-05-19T15:24:44.624Z,13.10
2019-05-19T15:29:50.457Z,25.85
2019-05-19T15:34:54.720Z,17.85
2019-05-19T15:39:58.144Z,13.30
2019-05-19T15:45:01.995Z,5.62
2019-05-19T15:50:06.976Z,5.75
2019-05-19T15:55:10.165Z,5.95
2019-05-19T16:00:14.696Z,4.40
2019-05-19T16:05:18.520Z,5.08
2019-05-19T16:10:21.891Z,6.40
2019-05-19T16:15:25.370Z,4.97
2019-05-19T16:20:28.713Z,6.33
2019-05-19T16:25:33.444Z,6.15
2019-05-19T16:30:37.610Z,6.72
2019-05-19T16:35:41.353Z,6.03
2019-05-19T16:45:48.454Z,9.68
2019-05-19T16:50:51.978Z,13.72
2019-05-19T16:55:59.232Z,11.10
2019-05-19T17:01:02.656Z,14.25
2019-05-19T17:06:06.425Z,15.58
2019-05-19T17:11:18.370Z,15.53
2019-05-19T17:16:17.313Z,15.93
2019-05-19T17:21:21.426Z,19.05
2019-05-19T17:26:24.891Z,15.55
2019-05-19T17:31:28.436Z,16.37
2019-05-19T17:36:32.981Z,12.10
2019-05-19T17:41:37.217Z,9.95
2019-05-19T17:46:40.646Z,9.05
2019-05-19T17:51:43.993Z,10.98
2019-05-19T17:56:49.903Z,7.67
2019-05-19T18:01:55.573Z,6.80
2019-05-19T18:07:01.712Z,8.10
2019-05-19T18:12:05.446Z,6.37
2019-05-19T18:17:08.862Z,5.65
2019-05-19T18:22:12.249Z,5.90
2019-05-19T18:27:15.621Z,7.47
2019-05-19T18:32:19.336Z,5.60
2019-05-19T18:37:22.787Z,6.95
2019-05-19T18:42:26.344Z,4.25
2019-05-19T18:47:30.022Z,4.47
2019-05-19T18:52:33.509Z,7.95
2019-05-19T18:57:37.007Z,4.97
2019-05-19T19:02:41.462Z,6.22
2019-05-19T19:07:50.633Z,7.85
2019-05-19T19:12:55.915Z,5.47
2019-05-19T19:17:59.792Z,5.30
2019-05-19T19:23:04.272Z,6.10
2019-05-19T19:28:07.683Z,6.15
2019-05-19T19:33:10.984Z,4.85
2019-05-19T19:38:14.713Z,9.93
2019-05-19T19:43:19.389Z,5.87
2019-05-19T19:48:22.838Z,5.03
2019-05-19T19:53:26.204Z,6.17
2019-05-19T19:58:29.692Z,7.72
2019-05-19T20:03:33.106Z,7.28
2019-05-19T20:08:36.494Z,24.10
2019-05-19T20:13:41.583Z,10.23
2019-05-19T20:18:47.998Z,27.52
2019-05-19T20:28:55.311Z,12.28
2019-05-19T20:33:59.019Z,12.33
2019-05-19T20:39:03.829Z,9.18
2019-05-19T20:44:07.475Z,9.45
2019-05-19T20:49:11.081Z,10.90
2019-05-19T20:54:14.471Z,10.63
2019-05-19T20:59:18.410Z,10.50
2019-05-19T21:04:22.669Z,11.12
2019-05-19T21:09:26.015Z,10.98
2019-05-19T21:14:29.462Z,14.85
2019-05-19T21:19:35.958Z,16.07
2019-05-19T21:24:39.699Z,11.48
2019-05-19T21:29:43.162Z,8.90
2019-05-19T21:34:46.852Z,8.75
2019-05-19T21:39:50.240Z,8.83
2019-05-19T21:44:53.736Z,5.95
2019-05-19T21:49:57.024Z,10.70
2019-05-19T21:55:00.335Z,6.50
2019-05-19T22:00:06.018Z,6.03
2019-05-19T22:05:10.667Z,4.90
2019-05-19T22:10:14.362Z,7.47
2019-05-19T22:15:17.751Z,6.92
2019-05-19T22:20:21.415Z,5.90
2019-05-19T22:25:25.162Z,7.37
2019-05-19T22:30:28.836Z,4.37
2019-05-19T22:35:32.454Z,7.75
2019-05-19T22:40:35.971Z,11.22
2019-05-19T22:45:39.967Z,8.23
2019-05-19T22:50:43.651Z,10.10
2019-05-19T22:55:47.840Z,12.70
2019-05-19T23:00:51.612Z,12.85
2019-05-19T23:05:57.816Z,11.60
2019-05-19T23:11:01.263Z,14.43
2019-05-19T23:16:04.753Z,16.97
2019-05-19T23:21:08.020Z,16.37
2019-05-19T23:26:11.745Z,15.78
2019-05-19T23:31:15.822Z,16.77
2019-05-19T23:36:19.248Z,16.15
2019-05-19T23:41:23.290Z,20.10
2019-05-19T23:46:27.080Z,17.95
2019-05-19T23:51:30.449Z,18.82
2019-05-19T23:56:34.173Z,18.87
